Time;durP1;ratioP1;P1;durP2;ratioP2;P2;SDS_P1;SDS_P2;PMS_P1;PMS_P2;Temp;Humidity;BMP_temperature;BMP_pressure;BME280_temperature;BME280_humidity;BME280_pressure;Samples;Min_cycle;Max_cycle;Signal;HPM_P1;HPM_P2
2022/06/02 00:02:46;;;;;;;13.23;7.60;;;;;;;8.28;91.09;101823.59;5113405;28;20069;-84
2022/06/02 00:05:26;;;;;;;9.93;7.38;;;;;;;8.25;92.43;101824.81;5112471;28;20024;-85
2022/06/02 00:08:12;;;;;;;11.93;7.13;;;;;;;8.23;92.68;101826.00;5112750;28;20070;-84
2022/06/02 00:10:59;;;;;;;10.53;7.17;;;;;;;8.17;92.41;101824.81;5113247;28;20375;-84
2022/06/02 00:13:53;;;;;;;10.38;7.18;;;;;;;8.15;92.17;101831.41;5113454;28;20115;-84
2022/06/02 00:16:29;;;;;;;12.70;7.82;;;;;;;8.13;92.73;101828.91;5112310;28;20062;-85
2022/06/02 00:19:02;;;;;;;10.43;7.60;;;;;;;8.12;93.06;101831.78;5114292;28;20033;-84
2022/06/02 00:21:37;;;;;;;12.20;7.85;;;;;;;8.11;92.86;101819.28;5116207;28;20400;-84
2022/06/02 00:24:11;;;;;;;10.90;7.30;;;;;;;8.07;93.26;101829.59;5116467;28;20027;-84
2022/06/02 00:26:45;;;;;;;11.77;8.05;;;;;;;8.07;93.26;101835.88;5117658;28;20028;-84
2022/06/02 00:29:21;;;;;;;9.40;7.80;;;;;;;8.06;93.70;101830.59;5115840;28;20103;-84
2022/06/02 00:31:50;;;;;;;11.65;7.93;;;;;;;8.06;93.12;101834.16;5116083;28;20574;-85
2022/06/02 00:34:21;;;;;;;11.35;8.27;;;;;;;8.06;93.33;101834.16;5116947;28;20031;-84
2022/06/02 00:37:04;;;;;;;10.27;7.93;;;;;;;8.03;92.95;101836.38;5115929;28;20058;-84
2022/06/02 00:39:33;;;;;;;13.23;8.15;;;;;;;8.02;93.48;101835.53;5116959;28;20113;-84
2022/06/02 00:42:11;;;;;;;11.70;8.38;;;;;;;7.98;93.68;101831.50;5116764;28;20030;-84
2022/06/02 00:44:50;;;;;;;11.95;8.35;;;;;;;7.98;93.73;101838.75;5115445;28;20417;-84
2022/06/02 00:47:53;;;;;;;11.70;7.82;;;;;;;7.95;93.55;101842.66;5115679;28;20035;-84
2022/06/02 00:51:16;;;;;;;10.00;7.70;;;;;;;7.89;93.98;101837.94;5116575;28;20077;-84
2022/06/02 00:57:30;;;;;;;11.18;7.82;;;;;;;7.82;94.01;101851.28;5033750;28;20041;-84
2022/06/02 01:00:03;;;;;;;18.30;9.00;;;;;;;7.70;94.64;101850.81;5108320;27;20046;-84
2022/06/02 01:02:34;;;;;;;14.30;8.73;;;;;;;7.66;94.83;101848.63;5115914;28;20032;-84
2022/06/02 01:05:00;;;;;;;12.33;8.47;;;;;;;7.63;95.03;101849.84;5116491;28;20089;-84
2022/06/02 01:07:48;;;;;;;13.52;9.05;;;;;;;7.60;94.74;101852.00;5098220;28;20034;-84
2022/06/02 01:10:42;;;;;;;12.63;8.57;;;;;;;7.57;95.09;101849.66;5104931;28;20054;-84
2022/06/02 01:13:46;;;;;;;11.93;8.32;;;;;;;7.51;94.62;101838.53;5115198;28;20032;-84
2022/06/02 01:16:36;;;;;;;13.35;8.38;;;;;;;7.48;95.55;101846.97;5085686;28;20092;-84
2022/06/02 01:19:33;;;;;;;11.60;8.83;;;;;;;7.45;95.55;101838.38;5116257;28;20055;-84
2022/06/02 01:22:26;;;;;;;13.18;8.82;;;;;;;7.42;96.10;101842.25;5116565;28;20448;-84
2022/06/02 01:25:14;;;;;;;10.52;8.27;;;;;;;7.34;95.92;101843.09;5116100;28;20144;-84
2022/06/02 01:28:04;;;;;;;13.63;8.70;;;;;;;7.29;95.64;101841.91;5114974;28;20032;-84
2022/06/02 01:30:29;;;;;;;13.02;8.63;;;;;;;7.26;95.72;101847.66;5114341;28;20092;-84
2022/06/02 01:33:22;;;;;;;9.67;8.03;;;;;;;7.20;95.93;101844.63;5115115;28;20039;-84
2022/06/02 01:35:51;;;;;;;11.00;7.63;;;;;;;7.16;95.79;101854.06;5115524;28;20062;-84
2022/06/02 01:38:21;;;;;;;8.82;7.15;;;;;;;7.11;95.21;101850.19;5114982;28;20073;-84
2022/06/02 01:41:28;;;;;;;12.05;7.38;;;;;;;7.02;95.06;101852.88;5114692;28;20547;-84
2022/06/02 01:44:06;;;;;;;10.90;7.07;;;;;;;6.94;94.83;101849.31;5104341;28;20058;-84
2022/06/02 01:46:53;;;;;;;10.93;7.28;;;;;;;6.92;94.93;101851.34;5115693;28;20036;-84
2022/06/02 01:49:32;;;;;;;13.40;7.30;;;;;;;6.88;94.97;101850.84;5114784;28;20059;-84
2022/06/02 01:51:58;;;;;;;10.63;7.10;;;;;;;6.85;95.62;101848.47;5115582;28;20038;-84
2022/06/02 01:54:55;;;;;;;10.67;7.70;;;;;;;6.85;96.60;101845.78;5114707;28;20040;-84
2022/06/02 01:57:27;;;;;;;9.77;7.35;;;;;;;6.83;96.38;101848.63;5114676;28;20023;-84
2022/06/02 02:00:09;;;;;;;14.60;7.30;;;;;;;6.81;96.79;101847.97;5113981;28;20031;-84
2022/06/02 02:02:43;;;;;;;9.25;6.60;;;;;;;6.74;95.76;101851.50;5114148;28;20119;-84
2022/06/02 02:05:17;;;;;;;12.02;8.07;;;;;;;6.66;95.44;101852.31;5115193;28;20107;-84
2022/06/02 02:08:07;;;;;;;13.23;8.70;;;;;;;6.60;95.73;101858.34;5115515;28;20042;-84
2022/06/02 02:10:55;;;;;;;19.42;12.00;;;;;;;6.54;95.90;101857.19;5113863;28;20097;-84
2022/06/02 02:13:38;;;;;;;16.85;12.00;;;;;;;6.48;95.95;101860.50;5115105;28;20028;-84
2022/06/02 02:16:29;;;;;;;23.27;13.65;;;;;;;6.42;96.75;101861.16;5114033;28;20471;-83
2022/06/02 02:19:02;;;;;;;20.80;13.10;;;;;;;6.34;97.03;101859.28;5114314;28;20023;-83
2022/06/02 02:21:45;;;;;;;15.93;12.00;;;;;;;6.29;97.24;101861.66;5113882;28;20042;-84
2022/06/02 02:24:14;;;;;;;24.67;13.75;;;;;;;6.27;97.42;101867.16;5113272;28;20032;-83
2022/06/02 02:26:53;;;;;;;19.17;13.40;;;;;;;6.29;98.07;101865.16;5114811;28;20103;-84
2022/06/02 02:29:37;;;;;;;20.88;13.57;;;;;;;6.28;98.82;101873.41;5114873;28;20024;-84
2022/06/02 02:32:34;;;;;;;23.73;13.63;;;;;;;6.27;98.57;101869.84;5115035;28;20102;-84
2022/06/02 02:35:12;;;;;;;20.77;12.67;;;;;;;6.24;97.86;101875.56;5113422;28;20042;-84
2022/06/02 02:37:52;;;;;;;20.02;12.88;;;;;;;6.19;97.89;101863.63;5115198;28;20027;-84
2022/06/02 02:40:42;;;;;;;19.85;12.63;;;;;;;6.15;97.50;101871.16;5113626;28;20050;-83
2022/06/02 02:43:32;;;;;;;22.80;13.75;;;;;;;6.12;97.96;101869.63;5112622;28;20032;-84
2022/06/02 02:46:17;;;;;;;23.33;14.00;;;;;;;6.10;98.20;101874.34;5113318;28;20052;-83
2022/06/02 02:49:00;;;;;;;22.10;14.00;;;;;;;6.08;98.82;101873.69;5114572;28;20498;-83
2022/06/02 02:51:44;;;;;;;20.63;13.48;;;;;;;6.08;98.43;101872.81;5114136;28;20536;-82
2022/06/02 02:54:24;;;;;;;24.25;13.75;;;;;;;6.05;98.13;101867.75;5113124;28;20037;-84
2022/06/02 02:56:59;;;;;;;20.80;13.15;;;;;;;6.00;97.79;101876.31;5113357;28;20034;-83
2022/06/02 02:59:38;;;;;;;20.67;13.75;;;;;;;6.01;98.98;101874.44;5113310;28;20472;-84
2022/06/02 03:02:15;;;;;;;22.33;14.67;;;;;;;6.03;99.03;101877.84;5114866;28;20052;-83
2022/06/02 03:04:47;;;;;;;21.88;14.30;;;;;;;6.02;99.36;101890.44;5114304;28;20038;-83
2022/06/02 03:07:12;;;;;;;20.10;13.30;;;;;;;5.96;98.46;101891.06;5112917;28;20035;-84
2022/06/02 03:10:03;;;;;;;23.23;14.55;;;;;;;5.92;98.76;101885.16;5113453;28;20074;-84
2022/06/02 03:12:54;;;;;;;21.07;14.00;;;;;;;5.91;98.84;101888.03;5112951;28;20041;-83
2022/06/02 03:15:30;;;;;;;21.13;14.23;;;;;;;5.90;99.27;101889.84;5114272;28;20032;-83
2022/06/02 03:18:14;;;;;;;24.55;15.15;;;;;;;5.92;100.00;101895.94;5114213;28;20032;-83
2022/06/02 03:20:51;;;;;;;25.85;15.93;;;;;;;5.92;100.00;101892.38;5113065;28;20412;-83
2022/06/02 03:23:19;;;;;;;25.98;15.65;;;;;;;5.96;100.00;101899.16;5113057;28;20056;-84
2022/06/02 03:25:54;;;;;;;22.37;14.37;;;;;;;5.95;100.00;101897.47;5114050;28;20065;-84
2022/06/02 03:28:38;;;;;;;24.88;14.93;;;;;;;5.94;99.79;101907.38;5113111;28;20024;-83
2022/06/02 03:31:07;;;;;;;23.88;15.10;;;;;;;5.90;99.27;101906.00;5112709;28;20030;-83
2022/06/02 03:33:39;;;;;;;27.33;15.40;;;;;;;5.85;99.40;101911.03;5112665;28;20066;-83
2022/06/02 03:36:18;;;;;;;26.50;15.63;;;;;;;5.82;99.80;101914.06;5113313;28;20130;-83
2022/06/02 03:39:03;;;;;;;24.30;15.43;;;;;;;5.80;99.92;101925.00;5112998;28;20472;-83
2022/06/02 03:41:47;;;;;;;25.33;15.95;;;;;;;5.80;99.79;101922.28;5113277;28;20126;-83
2022/06/02 03:44:49;;;;;;;26.77;16.95;;;;;;;5.80;100.00;101921.44;5112797;28;20051;-84
2022/06/02 03:47:39;;;;;;;26.92;16.70;;;;;;;5.80;100.00;101922.28;5113238;28;20032;-83
2022/06/02 03:50:29;;;;;;;26.08;16.25;;;;;;;5.83;100.00;101931.06;5112322;28;20062;-83
2022/06/02 03:52:57;;;;;;;29.33;16.13;;;;;;;5.84;99.81;101928.19;5113814;28;20027;-83
2022/06/02 03:55:40;;;;;;;28.77;16.83;;;;;;;5.88;100.00;101928.75;5116924;28;20031;-83
2022/06/02 03:58:45;;;;;;;28.33;16.75;;;;;;;5.92;100.00;101932.78;5117716;28;20023;-83
2022/06/02 04:01:17;;;;;;;26.40;15.75;;;;;;;5.97;100.00;101925.97;5117930;28;20031;-83
2022/06/02 04:03:48;;;;;;;28.83;16.98;;;;;;;6.02;100.00;101938.94;5116884;28;20132;-84
2022/06/02 04:06:40;;;;;;;26.13;15.73;;;;;;;6.08;100.00;101930.25;5116312;28;20040;-84
2022/06/02 04:09:43;;;;;;;28.88;16.83;;;;;;;6.15;100.00;101936.66;5117828;28;20024;-83
2022/06/02 04:15:28;;;;;;;26.75;16.52;;;;;;;6.28;99.58;101940.81;5117701;28;20051;-84
2022/06/02 04:18:24;;;;;;;29.25;17.67;;;;;;;6.32;100.00;101947.56;5116307;28;20050;-83
2022/06/02 04:21:02;;;;;;;29.17;17.47;;;;;;;6.33;99.75;101943.84;5116807;28;20345;-84
2022/06/02 04:23:46;;;;;;;29.40;17.48;;;;;;;6.38;99.79;101946.06;5115539;28;20023;-83
2022/06/02 04:26:30;;;;;;;28.80;17.85;;;;;;;6.41;99.62;101948.47;5116143;28;20047;-84
2022/06/02 04:29:08;;;;;;;26.85;17.10;;;;;;;6.44;99.58;101948.97;5115815;28;20024;-84
2022/06/02 04:32:03;;;;;;;31.35;17.92;;;;;;;6.47;99.78;101950.50;5116656;28;20051;-83
2022/06/02 04:34:41;;;;;;;31.93;18.83;;;;;;;6.51;99.48;101949.19;5115779;28;20114;-84
2022/06/02 04:37:23;;;;;;;33.75;18.75;;;;;;;6.56;99.22;101956.78;5117216;28;20035;-83
2022/06/02 04:39:54;;;;;;;27.45;17.98;;;;;;;6.59;98.87;101960.00;5115638;28;20042;-84
2022/06/02 04:42:29;;;;;;;30.83;17.83;;;;;;;6.57;98.71;101953.94;5116798;28;20028;-83
2022/06/02 04:44:57;;;;;;;32.25;19.83;;;;;;;6.60;98.81;101960.81;5116634;28;20071;-84
2022/06/02 04:47:48;;;;;;;30.37;18.47;;;;;;;6.65;98.95;101964.72;5115399;28;20036;-83
2022/06/02 04:50:29;;;;;;;37.85;19.35;;;;;;;6.73;99.20;101961.25;5115031;28;20031;-84
2022/06/02 04:53:09;;;;;;;40.78;20.85;;;;;;;6.80;99.40;101959.56;5115905;28;20023;-83
2022/06/02 04:55:49;;;;;;;37.38;21.30;;;;;;;6.90;99.87;101956.72;5115546;28;20502;-84
2022/06/02 04:58:21;;;;;;;35.20;20.83;;;;;;;6.99;99.49;101963.84;5115549;28;20570;-83
2022/06/02 05:01:33;;;;;;;41.70;22.90;;;;;;;7.09;99.84;101955.59;5115110;28;20031;-83
2022/06/02 05:04:31;;;;;;;39.25;21.50;;;;;;;7.24;99.74;101952.28;5087774;27;20044;-84
2022/06/02 05:07:09;;;;;;;40.60;23.05;;;;;;;7.33;99.65;101960.19;5113554;28;20042;-83
2022/06/02 05:09:52;;;;;;;40.88;23.33;;;;;;;7.42;99.94;101957.50;5115322;28;20517;-83
2022/06/02 05:12:20;;;;;;;38.83;22.70;;;;;;;7.48;99.52;101965.78;5116557;28;20368;-84
2022/06/02 05:15:07;;;;;;;36.90;22.93;;;;;;;7.52;99.11;101964.44;5116462;27;20031;-83
2022/06/02 05:18:03;;;;;;;37.17;22.48;;;;;;;7.59;99.50;101971.84;5115322;28;20023;-83
2022/06/02 05:21:10;;;;;;;36.85;22.48;;;;;;;7.59;98.86;101969.16;5115275;28;20348;-83
2022/06/02 05:23:55;;;;;;;39.47;21.65;;;;;;;7.68;98.61;101968.16;5115516;28;20024;-83
2022/06/02 05:26:38;;;;;;;38.40;22.52;;;;;;;7.74;98.81;101972.91;5114781;28;20059;-83
2022/06/02 05:29:32;;;;;;;41.27;23.30;;;;;;;7.82;99.26;101972.88;5114424;28;20467;-83
2022/06/02 05:32:12;;;;;;;39.85;24.38;;;;;;;7.90;99.02;101966.66;5115614;28;20042;-83
2022/06/02 05:35:09;;;;;;;38.80;23.88;;;;;;;7.97;99.06;101973.06;5114244;28;20039;-83
2022/06/02 05:37:38;;;;;;;41.35;24.23;;;;;;;8.05;99.43;101966.78;5108144;28;20383;-84
2022/06/02 05:40:24;;;;;;;40.22;23.15;;;;;;;8.15;99.26;101964.75;5114178;28;20043;-83
2022/06/02 05:43:18;;;;;;;38.93;23.10;;;;;;;8.26;98.93;101966.25;5114084;28;20028;-83
2022/06/02 05:46:08;;;;;;;38.72;23.98;;;;;;;8.38;99.85;101967.53;5114283;28;20375;-82
2022/06/02 05:48:49;;;;;;;40.63;23.83;;;;;;;8.49;99.84;101969.09;5115621;28;20062;-83
2022/06/02 05:51:44;;;;;;;42.03;24.42;;;;;;;8.58;100.00;101968.03;5114215;28;20122;-82
2022/06/02 05:54:18;;;;;;;43.33;24.50;;;;;;;8.71;99.52;101972.91;5072659;28;20040;-82
2022/06/02 05:56:56;;;;;;;39.77;22.57;;;;;;;8.81;99.94;101974.53;5114976;28;20032;-82
2022/06/02 05:59:44;;;;;;;37.28;22.95;;;;;;;8.92;99.82;101983.09;5114867;28;20024;-82
2022/06/02 06:02:18;;;;;;;40.28;21.98;;;;;;;9.01;99.22;101983.09;5102683;28;20131;-82
2022/06/02 06:05:02;;;;;;;37.05;22.05;;;;;;;9.11;98.78;101992.66;5113339;28;20482;-82
2022/06/02 06:07:58;;;;;;;33.72;21.73;;;;;;;9.18;98.46;101987.34;5114682;28;20109;-82
2022/06/02 06:10:38;;;;;;;39.07;21.27;;;;;;;9.30;98.05;101993.22;5113985;28;20051;-82
2022/06/02 06:13:15;;;;;;;36.72;21.50;;;;;;;9.39;97.85;102004.84;5113783;28;20034;-82
2022/06/02 06:15:49;;;;;;;34.17;21.98;;;;;;;9.46;97.77;101998.53;5114657;28;20114;-82
2022/06/02 06:18:42;;;;;;;34.22;22.02;;;;;;;9.56;97.49;102006.41;5114437;28;20036;-82
2022/06/02 06:21:26;;;;;;;35.72;21.30;;;;;;;9.64;97.24;102009.06;5114422;28;20088;-82
2022/06/02 06:24:08;;;;;;;38.27;21.27;;;;;;;9.77;97.51;102015.75;5113351;28;20028;-82
2022/06/02 06:26:45;;;;;;;31.17;19.15;;;;;;;9.94;96.20;102008.34;5112909;28;20077;-82
2022/06/02 06:29:43;;;;;;;31.42;20.55;;;;;;;10.06;95.47;102015.00;5113159;28;20107;-82
2022/06/02 06:32:29;;;;;;;26.27;17.25;;;;;;;10.17;94.54;102013.69;5113235;28;20085;-81
2022/06/02 06:35:01;;;;;;;29.83;17.58;;;;;;;10.33;93.18;102019.03;5113107;28;20032;-82
2022/06/02 06:38:06;;;;;;;25.33;16.90;;;;;;;10.41;92.54;102017.22;5113306;28;20036;-82
2022/06/02 06:40:46;;;;;;;25.00;16.33;;;;;;;10.48;92.98;102015.47;5110713;28;20054;-82
2022/06/02 06:43:39;;;;;;;29.35;18.30;;;;;;;10.52;92.32;102017.59;5113768;28;20034;-83
2022/06/02 06:46:17;;;;;;;24.40;16.60;;;;;;;10.61;92.35;102021.06;5114910;28;20089;-83
2022/06/02 06:48:51;;;;;;;21.40;14.43;;;;;;;10.69;90.94;102031.03;5112913;28;20031;-84
2022/06/02 06:51:35;;;;;;;18.17;13.27;;;;;;;10.76;90.35;102031.94;5112487;28;20023;-84
2022/06/02 06:54:06;;;;;;;17.08;11.88;;;;;;;10.87;89.81;102034.19;5113672;28;20024;-83
2022/06/02 06:56:59;;;;;;;18.63;12.10;;;;;;;10.96;89.71;102034.94;5112845;28;20054;-83
2022/06/02 06:59:53;;;;;;;15.45;11.23;;;;;;;11.04;89.12;102042.13;5112721;28;20028;-83
2022/06/02 07:02:34;;;;;;;13.90;10.07;;;;;;;11.15;87.82;102035.38;5112905;28;20055;-84
2022/06/02 07:05:20;;;;;;;13.63;10.53;;;;;;;11.27;88.22;102033.00;5112839;28;20111;-84
2022/06/02 07:07:53;;;;;;;17.17;10.30;;;;;;;11.42;87.73;102039.22;5114272;28;20041;-84
2022/06/02 07:10:50;;;;;;;16.05;11.55;;;;;;;11.55;86.76;102038.56;5112338;28;20032;-84
2022/06/02 07:13:37;;;;;;;14.63;11.00;;;;;;;11.66;85.25;102040.75;5042577;28;20046;-84
2022/06/02 07:16:27;;;;;;;16.05;11.02;;;;;;;11.75;84.85;102053.19;5112995;28;20031;-83
2022/06/02 07:19:04;;;;;;;13.30;9.90;;;;;;;11.89;83.73;102047.88;5114059;28;20024;-84
2022/06/02 07:21:46;;;;;;;11.45;9.38;;;;;;;12.04;82.42;102054.09;5113509;28;20055;-84
2022/06/02 07:24:34;;;;;;;11.90;9.32;;;;;;;12.28;82.29;102052.00;5113047;28;20023;-83
2022/06/02 07:27:26;;;;;;;12.30;9.70;;;;;;;12.61;81.57;102054.97;5113454;28;20065;-83
2022/06/02 07:29:55;;;;;;;14.38;10.05;;;;;;;13.01;78.66;102057.09;5115451;28;20470;-83
2022/06/02 07:32:55;;;;;;;13.93;9.93;;;;;;;13.48;78.46;102052.69;5116408;28;20062;-83
2022/06/02 07:35:46;;;;;;;11.32;8.05;;;;;;;13.89;76.63;102052.75;5116859;28;20027;-84
2022/06/02 07:38:49;;;;;;;10.13;8.23;;;;;;;14.23;75.13;102057.16;5116453;28;20027;-84
2022/06/02 07:41:22;;;;;;;10.32;6.43;;;;;;;14.37;70.84;102067.03;5116316;28;20379;-83
2022/06/02 07:43:50;;;;;;;8.65;6.35;;;;;;;14.59;69.75;102061.34;5116588;28;20035;-84
2022/06/02 07:46:35;;;;;;;9.07;6.40;;;;;;;14.86;70.69;102066.78;5116481;28;20058;-84
2022/06/02 07:49:38;;;;;;;8.32;6.88;;;;;;;15.07;70.51;102058.31;5117584;28;20055;-83
2022/06/02 07:52:17;;;;;;;9.75;7.53;;;;;;;15.29;67.14;102052.53;5117280;28;20038;-84
2022/06/02 07:55:19;;;;;;;9.02;7.10;;;;;;;15.55;68.17;102057.03;5117665;28;20027;-84
2022/06/02 07:57:57;;;;;;;9.25;7.38;;;;;;;15.91;66.40;102052.81;5116642;28;20042;-84
2022/06/02 08:00:28;;;;;;;8.37;6.60;;;;;;;16.16;63.73;102049.25;5116368;28;20032;-85
2022/06/02 08:03:22;;;;;;;9.95;7.03;;;;;;;16.31;64.21;102044.28;5116168;28;20650;-83
2022/06/02 08:05:48;;;;;;;7.43;6.55;;;;;;;16.15;61.79;102044.88;5116263;28;20027;-83
2022/06/02 08:08:43;;;;;;;9.90;6.87;;;;;;;16.06;64.79;102051.66;5117003;28;20031;-83
2022/06/02 08:11:37;;;;;;;9.10;7.13;;;;;;;16.01;64.73;102046.84;5117395;27;20026;-83
2022/06/02 08:14:02;;;;;;;15.50;9.73;;;;;;;15.89;61.86;102054.94;5117290;28;20031;-83
2022/06/02 08:16:42;;;;;;;10.00;6.93;;;;;;;15.81;61.87;102048.91;5115995;28;20027;-83
2022/06/02 08:19:13;;;;;;;7.55;6.38;;;;;;;15.76;61.81;102046.78;5116888;28;20380;-83
2022/06/02 08:21:38;;;;;;;7.43;6.60;;;;;;;15.88;62.46;102045.03;5116030;28;20567;-83
2022/06/02 08:24:25;;;;;;;7.10;6.40;;;;;;;15.93;62.96;102047.97;5117096;28;20111;-83
2022/06/02 08:27:09;;;;;;;9.02;7.18;;;;;;;15.88;62.27;102050.53;5117128;28;20065;-83
2022/06/02 08:29:59;;;;;;;7.47;6.57;;;;;;;15.95;62.89;102054.06;5117087;28;20028;-83
2022/06/02 08:32:43;;;;;;;9.27;7.38;;;;;;;16.12;63.16;102043.41;5116926;27;20058;-83
2022/06/02 08:35:35;;;;;;;9.18;7.00;;;;;;;16.23;60.78;102047.31;5116148;28;20032;-83
2022/06/02 08:38:10;;;;;;;11.43;7.80;;;;;;;16.28;59.17;102052.09;5115460;28;20027;-83
2022/06/02 08:41:28;;;;;;;8.32;7.50;;;;;;;16.42;60.92;102058.31;5115429;28;20031;-83
2022/06/02 08:43:56;;;;;;;13.10;7.23;;;;;;;16.65;59.69;102060.38;5116663;28;20489;-83
2022/06/02 08:46:56;;;;;;;8.85;7.57;;;;;;;16.81;60.41;102062.53;5116694;28;20015;-83
2022/06/02 08:49:34;;;;;;;12.02;8.32;;;;;;;16.94;58.69;102060.75;5114317;28;20077;-83
2022/06/02 08:52:14;;;;;;;10.02;7.80;;;;;;;16.90;58.63;102068.59;5116126;28;20051;-83
2022/06/02 08:54:58;;;;;;;9.00;6.75;;;;;;;16.89;57.43;102064.19;5115509;28;20028;-83
2022/06/02 08:57:47;;;;;;;8.17;6.03;;;;;;;16.70;56.82;102062.44;5115330;28;20028;-83
2022/06/02 09:00:18;;;;;;;7.88;6.28;;;;;;;16.48;57.41;102063.72;5115421;28;20050;-83
2022/06/02 09:03:21;;;;;;;7.28;6.20;;;;;;;16.55;59.21;102058.19;5115036;28;20043;-83
2022/06/02 09:05:49;;;;;;;8.07;7.20;;;;;;;16.53;57.24;102052.06;5116341;28;20068;-83
2022/06/02 09:08:29;;;;;;;9.07;6.50;;;;;;;16.52;57.59;102050.41;5115906;28;20035;-84
2022/06/02 09:11:09;;;;;;;7.13;4.67;;;;;;;16.55;56.06;102054.59;5114600;28;20057;-83
2022/06/02 09:13:55;;;;;;;5.00;4.50;;;;;;;16.69;55.86;102053.41;5114797;28;20024;-83
2022/06/02 09:16:36;;;;;;;5.40;4.90;;;;;;;16.86;56.15;102052.78;5115185;28;20102;-83
2022/06/02 09:19:14;;;;;;;4.88;4.38;;;;;;;17.02;55.77;102060.44;5114795;28;20038;-83
2022/06/02 09:22:09;;;;;;;6.28;4.18;;;;;;;17.16;55.66;102055.63;5114715;28;20035;-83
2022/06/02 09:25:13;;;;;;;4.50;4.03;;;;;;;17.18;56.26;102057.09;5116270;28;20031;-83
2022/06/02 09:28:27;;;;;;;5.45;4.60;;;;;;;17.24;54.32;102051.75;5114878;28;20020;-83
2022/06/02 09:30:53;;;;;;;9.10;4.70;;;;;;;17.35;53.43;102048.22;5052795;28;20059;-83
2022/06/02 09:33:50;;;;;;;6.20;5.10;;;;;;;17.45;54.91;102053.13;5101375;28;20035;-83
2022/06/02 09:36:21;;;;;;;7.65;6.15;;;;;;;17.46;53.06;102049.34;5083241;28;20039;-83
2022/06/02 09:39:05;;;;;;;8.57;6.53;;;;;;;17.51;54.06;102046.75;5114575;28;20449;-83
2022/06/02 09:41:42;;;;;;;6.97;6.10;;;;;;;17.53;53.30;102050.91;5114538;28;20023;-82
2022/06/02 09:44:34;;;;;;;7.53;6.40;;;;;;;17.52;53.83;102051.13;5113945;28;20126;-83
2022/06/02 09:47:31;;;;;;;8.02;6.32;;;;;;;17.76;53.14;102042.97;5115754;28;20039;-83
2022/06/02 09:50:18;;;;;;;6.53;5.60;;;;;;;17.94;51.65;102040.22;5114905;28;20096;-84
2022/06/02 09:53:15;;;;;;;7.20;6.45;;;;;;;18.02;51.88;102045.34;5113920;28;20076;-83
2022/06/02 09:56:31;;;;;;;7.60;6.57;;;;;;;18.26;52.67;102041.78;5114300;28;20476;-83
2022/06/02 09:59:24;;;;;;;6.83;6.13;;;;;;;18.41;51.45;102045.75;5091807;28;20138;-83
2022/06/02 10:02:24;;;;;;;6.32;5.72;;;;;;;18.51;51.37;102049.78;5115284;28;20035;-83
2022/06/02 10:05:18;;;;;;;7.30;6.28;;;;;;;18.76;51.37;102044.88;5114528;28;20406;-83
2022/06/02 10:07:57;;;;;;;5.10;4.50;;;;;;;18.98;48.63;102051.69;5114755;28;20498;-83
2022/06/02 10:10:28;;;;;;;7.22;4.80;;;;;;;19.27;48.38;102047.06;5115296;28;20106;-84
2022/06/02 10:13:31;;;;;;;5.70;5.20;;;;;;;19.45;48.73;102041.34;5113630;28;20036;-83
2022/06/02 10:16:24;;;;;;;7.25;6.10;;;;;;;19.41;48.14;102037.44;5113830;28;20115;-83
2022/06/02 10:19:29;;;;;;;6.32;5.70;;;;;;;19.51;48.11;102035.94;5115453;28;20031;-83
2022/06/02 10:22:20;;;;;;;5.40;4.90;;;;;;;19.90;46.74;102039.72;5114360;28;20058;-83
2022/06/02 10:25:12;;;;;;;5.45;4.55;;;;;;;20.37;43.81;102038.50;5113534;28;20061;-83
2022/06/02 10:27:37;;;;;;;4.60;4.20;;;;;;;20.59;43.18;102034.97;5114348;28;20080;-83
2022/06/02 10:30:40;;;;;;;6.90;5.15;;;;;;;20.82;43.82;102031.19;5113721;28;20028;-83
2022/06/02 10:33:45;;;;;;;6.20;5.60;;;;;;;21.32;43.98;102035.66;5113337;28;20031;-84
2022/06/02 10:36:20;;;;;;;6.60;4.82;;;;;;;21.58;43.14;102027.66;5113625;28;20042;-83
2022/06/02 10:39:06;;;;;;;6.28;5.68;;;;;;;21.63;43.68;102029.63;5114479;28;20028;-84
2022/06/02 10:42:11;;;;;;;6.13;4.70;;;;;;;21.98;42.92;102022.75;5112802;28;20123;-84
2022/06/02 10:44:46;;;;;;;5.07;4.60;;;;;;;22.31;39.25;102020.78;5100528;28;20116;-84
2022/06/02 10:47:27;;;;;;;5.20;4.57;;;;;;;22.49;39.73;102023.16;5113346;28;20089;-83
2022/06/02 10:50:23;;;;;;;5.20;4.70;;;;;;;22.77;40.90;102021.09;5113416;28;20113;-83
2022/06/02 10:53:17;;;;;;;5.30;4.80;;;;;;;22.87;39.59;102023.03;5113872;28;20100;-83
2022/06/02 10:56:24;;;;;;;5.72;5.07;;;;;;;23.24;40.77;102022.13;5113281;28;20066;-85
2022/06/02 10:59:21;;;;;;;6.03;5.38;;;;;;;23.43;39.95;102019.66;5112806;28;20027;-84
2022/06/02 11:02:01;;;;;;;5.23;4.73;;;;;;;23.85;37.43;102015.00;5112464;28;20028;-85
2022/06/02 11:05:04;;;;;;;5.85;5.22;;;;;;;24.54;37.62;102008.00;5111019;28;20063;-84
2022/06/02 11:07:48;;;;;;;5.97;5.35;;;;;;;24.84;36.22;102007.06;5114644;28;20023;-85
2022/06/02 11:10:42;;;;;;;6.55;4.82;;;;;;;24.85;36.14;102005.13;5113869;28;20169;-85
2022/06/02 11:13:43;;;;;;;5.72;4.80;;;;;;;24.50;34.74;102004.94;5114023;28;20020;-85
2022/06/02 11:16:46;;;;;;;6.10;5.47;;;;;;;24.75;36.33;102006.00;5112788;28;20486;-85
2022/06/02 11:19:33;;;;;;;7.13;5.85;;;;;;;26.94;33.72;102000.03;5113347;28;20126;-85
2022/06/02 11:22:14;;;;;;;6.80;6.10;;;;;;;27.26;30.50;101998.47;5112631;28;20059;-84
2022/06/02 11:25:16;;;;;;;6.50;5.90;;;;;;;27.02;33.63;101993.81;5113660;28;20515;-85
2022/06/02 11:27:57;;;;;;;6.20;5.63;;;;;;;28.09;30.92;101998.00;5112462;28;20032;-84
2022/06/02 11:31:00;;;;;;;6.50;5.90;;;;;;;27.36;31.48;101995.56;5114377;28;20020;-85
2022/06/02 11:33:31;;;;;;;5.75;5.20;;;;;;;27.93;29.23;101989.91;5112890;28;20034;-84
2022/06/02 11:36:02;;;;;;;6.03;5.43;;;;;;;28.57;29.32;101991.22;5112834;28;20036;-85
2022/06/02 11:39:05;;;;;;;4.80;4.40;;;;;;;27.59;30.17;101988.25;5112073;28;20030;-84
2022/06/02 11:41:43;;;;;;;5.50;5.05;;;;;;;27.68;28.95;101985.56;5112996;28;20032;-84
2022/06/02 11:44:21;;;;;;;5.47;4.97;;;;;;;31.21;25.82;101976.63;5112341;28;20047;-84
2022/06/02 11:47:07;;;;;;;5.50;5.00;;;;;;;34.97;23.94;101970.97;5114325;28;20038;-84
2022/06/02 11:49:54;;;;;;;5.55;5.00;;;;;;;37.59;19.36;101962.94;5113195;28;20088;-84
2022/06/02 11:52:57;;;;;;;5.47;5.00;;;;;;;39.63;19.73;101956.69;5113643;28;20028;-84
2022/06/02 11:55:42;;;;;;;4.57;4.22;;;;;;;38.26;16.41;101949.19;5112429;28;20032;-84
2022/06/02 11:58:26;;;;;;;4.83;4.43;;;;;;;40.18;14.93;101946.63;5112173;28;20081;-84
2022/06/02 12:01:18;;;;;;;5.93;5.38;;;;;;;40.71;17.69;101942.53;5113484;28;20064;-85
2022/06/02 12:04:17;;;;;;;5.10;4.70;;;;;;;38.07;17.64;101926.59;5112124;28;20031;-84
2022/06/02 12:07:15;;;;;;;4.93;4.53;;;;;;;35.46;20.18;101930.53;5112710;28;20364;-85
2022/06/02 12:09:41;;;;;;;5.70;4.82;;;;;;;34.81;19.12;101932.63;5113680;28;20024;-84
2022/06/02 12:12:32;;;;;;;5.07;4.67;;;;;;;36.82;16.83;101923.81;5112767;28;20458;-84
2022/06/02 12:15:31;;;;;;;5.10;4.70;;;;;;;39.81;17.23;101917.09;5114910;28;20032;-84
2022/06/02 12:18:16;;;;;;;5.10;4.63;;;;;;;41.26;14.14;101913.06;5115830;28;20069;-84
2022/06/02 12:21:18;;;;;;;6.55;6.05;;;;;;;43.19;13.68;101903.84;5116305;28;20137;-85
2022/06/02 12:24:13;;;;;;;5.37;4.80;;;;;;;44.11;13.04;101892.91;5115427;28;20077;-85
2022/06/02 12:27:19;;;;;;;5.25;4.75;;;;;;;41.09;14.23;101896.75;5115696;28;20028;-85
2022/06/02 12:30:18;;;;;;;5.47;5.05;;;;;;;37.87;17.62;101898.38;5034026;28;20065;-85
2022/06/02 12:32:58;;;;;;;5.10;4.70;;;;;;;35.62;18.40;101899.47;5115786;28;20409;-85
2022/06/02 12:35:50;;;;;;;5.10;4.70;;;;;;;37.76;17.66;101893.72;5117250;28;20027;-85
2022/06/02 12:38:27;;;;;;;4.70;4.30;;;;;;;40.35;15.01;101885.41;5115617;28;20039;-85
2022/06/02 12:41:25;;;;;;;4.90;4.50;;;;;;;42.57;14.45;101889.03;5116620;28;20032;-85
2022/06/02 12:44:15;;;;;;;5.60;5.10;;;;;;;42.77;13.99;101886.50;5114753;28;20027;-85
2022/06/02 12:47:02;;;;;;;4.50;4.18;;;;;;;41.72;14.26;101878.16;5115534;28;20038;-85
2022/06/02 12:49:33;;;;;;;5.10;4.70;;;;;;;41.07;13.46;101871.53;5115483;28;20038;-85
2022/06/02 12:52:30;;;;;;;5.60;5.20;;;;;;;42.16;13.41;101858.97;5115368;28;20027;-85